sensor_id;sensor_type;location;lat;lon;timestamp;P1;durP1;ratioP1;P2;durP2;ratioP2
5357;SDS011;2702;51.014;7.170;2023-02-28T00:00:05;4.45;;;2.75;;
5357;SDS011;2702;51.014;7.170;2023-02-28T00:02:36;3.55;;;2.40;;
5357;SDS011;2702;51.014;7.170;2023-02-28T00:05:03;3.95;;;2.45;;
5357;SDS011;2702;51.014;7.170;2023-02-28T00:07:30;3.17;;;2.10;;
5357;SDS011;2702;51.014;7.170;2023-02-28T00:09:56;3.65;;;2.15;;
5357;SDS011;2702;51.014;7.170;2023-02-28T00:12:22;2.47;;;2.22;;
5357;SDS011;2702;51.014;7.170;2023-02-28T00:14:48;2.90;;;2.20;;
5357;SDS011;2702;51.014;7.170;2023-02-28T00:17:15;3.83;;;2.63;;
5357;SDS011;2702;51.014;7.170;2023-02-28T00:19:43;2.35;;;2.15;;
5357;SDS011;2702;51.014;7.170;2023-02-28T00:22:09;2.87;;;2.47;;
5357;SDS011;2702;51.014;7.170;2023-02-28T00:24:35;2.67;;;2.13;;
5357;SDS011;2702;51.014;7.170;2023-02-28T00:27:01;3.07;;;2.77;;
5357;SDS011;2702;51.014;7.170;2023-02-28T00:29:27;2.57;;;2.37;;
5357;SDS011;2702;51.014;7.170;2023-02-28T00:31:53;5.13;;;2.97;;
5357;SDS011;2702;51.014;7.170;2023-02-28T00:34:18;2.47;;;2.27;;
5357;SDS011;2702;51.014;7.170;2023-02-28T00:36:44;3.43;;;2.30;;
5357;SDS011;2702;51.014;7.170;2023-02-28T00:39:14;3.10;;;2.30;;
5357;SDS011;2702;51.014;7.170;2023-02-28T00:41:40;2.67;;;2.47;;
5357;SDS011;2702;51.014;7.170;2023-02-28T00:44:06;2.40;;;2.17;;
5357;SDS011;2702;51.014;7.170;2023-02-28T00:46:32;2.30;;;2.20;;
5357;SDS011;2702;51.014;7.170;2023-02-28T00:48:58;2.87;;;2.63;;
5357;SDS011;2702;51.014;7.170;2023-02-28T00:51:24;4.33;;;3.00;;
5357;SDS011;2702;51.014;7.170;2023-02-28T00:53:49;4.33;;;3.10;;
5357;SDS011;2702;51.014;7.170;2023-02-28T00:56:15;3.73;;;2.73;;
5357;SDS011;2702;51.014;7.170;2023-02-28T00:58:41;3.80;;;2.40;;
5357;SDS011;2702;51.014;7.170;2023-02-28T01:01:08;4.50;;;3.17;;
5357;SDS011;2702;51.014;7.170;2023-02-28T01:03:34;3.05;;;2.55;;
5357;SDS011;2702;51.014;7.170;2023-02-28T01:06:00;3.60;;;2.83;;
5357;SDS011;2702;51.014;7.170;2023-02-28T01:08:26;3.47;;;2.60;;
5357;SDS011;2702;51.014;7.170;2023-02-28T01:10:52;2.30;;;2.10;;
5357;SDS011;2702;51.014;7.170;2023-02-28T01:13:18;2.95;;;2.47;;
5357;SDS011;2702;51.014;7.170;2023-02-28T01:15:51;3.97;;;2.60;;
5357;SDS011;2702;51.014;7.170;2023-02-28T01:18:20;2.03;;;1.90;;
5357;SDS011;2702;51.014;7.170;2023-02-28T01:20:47;2.67;;;2.47;;
5357;SDS011;2702;51.014;7.170;2023-02-28T01:23:13;2.58;;;1.80;;
5357;SDS011;2702;51.014;7.170;2023-02-28T01:25:39;2.90;;;2.65;;
5357;SDS011;2702;51.014;7.170;2023-02-28T01:28:05;2.83;;;2.63;;
5357;SDS011;2702;51.014;7.170;2023-02-28T01:30:31;2.90;;;2.63;;
5357;SDS011;2702;51.014;7.170;2023-02-28T01:32:57;2.58;;;2.38;;
5357;SDS011;2702;51.014;7.170;2023-02-28T01:35:23;3.05;;;2.50;;
5357;SDS011;2702;51.014;7.170;2023-02-28T01:37:49;2.23;;;2.03;;
5357;SDS011;2702;51.014;7.170;2023-02-28T01:40:15;4.37;;;3.97;;
5357;SDS011;2702;51.014;7.170;2023-02-28T01:42:41;3.10;;;2.23;;
5357;SDS011;2702;51.014;7.170;2023-02-28T01:45:26;7.83;;;2.67;;
5357;SDS011;2702;51.014;7.170;2023-02-28T01:47:54;3.10;;;2.90;;
5357;SDS011;2702;51.014;7.170;2023-02-28T01:50:26;2.45;;;2.13;;
5357;SDS011;2702;51.014;7.170;2023-02-28T01:52:55;3.17;;;2.38;;
5357;SDS011;2702;51.014;7.170;2023-02-28T01:55:24;2.50;;;2.30;;
5357;SDS011;2702;51.014;7.170;2023-02-28T01:57:55;3.28;;;2.60;;
5357;SDS011;2702;51.014;7.170;2023-02-28T02:00:24;4.18;;;2.70;;
5357;SDS011;2702;51.014;7.170;2023-02-28T02:02:53;2.92;;;2.30;;
5357;SDS011;2702;51.014;7.170;2023-02-28T02:05:24;2.20;;;2.10;;
5357;SDS011;2702;51.014;7.170;2023-02-28T02:07:54;2.60;;;2.40;;
5357;SDS011;2702;51.014;7.170;2023-02-28T02:10:27;5.30;;;2.15;;
5357;SDS011;2702;51.014;7.170;2023-02-28T02:18:54;3.22;;;2.30;;
5357;SDS011;2702;51.014;7.170;2023-02-28T02:27:22;2.38;;;2.00;;
5357;SDS011;2702;51.014;7.170;2023-02-28T02:32:35;2.65;;;2.45;;
5357;SDS011;2702;51.014;7.170;2023-02-28T02:35:42;2.35;;;2.15;;
5357;SDS011;2702;51.014;7.170;2023-02-28T02:41:08;3.38;;;2.67;;
5357;SDS011;2702;51.014;7.170;2023-02-28T02:46:31;2.55;;;2.38;;
5357;SDS011;2702;51.014;7.170;2023-02-28T02:49:08;3.85;;;2.15;;
5357;SDS011;2702;51.014;7.170;2023-02-28T02:51:38;3.03;;;2.70;;
5357;SDS011;2702;51.014;7.170;2023-02-28T02:54:14;2.50;;;2.30;;
5357;SDS011;2702;51.014;7.170;2023-02-28T02:56:48;2.88;;;2.50;;
5357;SDS011;2702;51.014;7.170;2023-02-28T02:59:18;2.53;;;2.38;;
5357;SDS011;2702;51.014;7.170;2023-02-28T03:01:50;3.58;;;2.58;;
5357;SDS011;2702;51.014;7.170;2023-02-28T03:04:19;3.28;;;2.40;;
5357;SDS011;2702;51.014;7.170;2023-02-28T03:06:47;3.85;;;2.53;;
5357;SDS011;2702;51.014;7.170;2023-02-28T03:09:13;2.92;;;2.50;;
5357;SDS011;2702;51.014;7.170;2023-02-28T03:11:39;2.90;;;2.70;;
5357;SDS011;2702;51.014;7.170;2023-02-28T03:20:04;2.50;;;2.30;;
5357;SDS011;2702;51.014;7.170;2023-02-28T03:22:52;3.05;;;2.50;;
5357;SDS011;2702;51.014;7.170;2023-02-28T03:25:31;4.78;;;2.60;;
5357;SDS011;2702;51.014;7.170;2023-02-28T03:33:56;2.60;;;2.35;;
5357;SDS011;2702;51.014;7.170;2023-02-28T03:36:25;3.00;;;2.72;;
5357;SDS011;2702;51.014;7.170;2023-02-28T03:39:03;4.18;;;2.95;;
5357;SDS011;2702;51.014;7.170;2023-02-28T03:41:36;2.95;;;2.50;;
5357;SDS011;2702;51.014;7.170;2023-02-28T03:44:13;3.22;;;3.00;;
5357;SDS011;2702;51.014;7.170;2023-02-28T03:46:54;2.97;;;2.67;;
5357;SDS011;2702;51.014;7.170;2023-02-28T03:49:28;3.78;;;3.10;;
5357;SDS011;2702;51.014;7.170;2023-02-28T03:52:08;3.33;;;3.03;;
5357;SDS011;2702;51.014;7.170;2023-02-28T03:54:36;3.47;;;3.17;;
5357;SDS011;2702;51.014;7.170;2023-02-28T03:57:15;3.42;;;2.95;;
5357;SDS011;2702;51.014;7.170;2023-02-28T04:00:04;2.80;;;2.60;;
5357;SDS011;2702;51.014;7.170;2023-02-28T04:02:42;3.70;;;3.20;;
5357;SDS011;2702;51.014;7.170;2023-02-28T04:05:08;3.65;;;3.35;;
5357;SDS011;2702;51.014;7.170;2023-02-28T04:07:35;3.60;;;3.30;;
5357;SDS011;2702;51.014;7.170;2023-02-28T04:10:01;4.90;;;3.40;;
5357;SDS011;2702;51.014;7.170;2023-02-28T04:12:28;3.40;;;3.10;;
5357;SDS011;2702;51.014;7.170;2023-02-28T04:14:54;4.93;;;3.30;;
5357;SDS011;2702;51.014;7.170;2023-02-28T04:17:19;3.10;;;2.80;;
5357;SDS011;2702;51.014;7.170;2023-02-28T04:19:45;3.60;;;2.83;;
5357;SDS011;2702;51.014;7.170;2023-02-28T04:22:11;4.30;;;3.97;;
5357;SDS011;2702;51.014;7.170;2023-02-28T04:24:37;3.60;;;3.27;;
5357;SDS011;2702;51.014;7.170;2023-02-28T04:27:06;3.58;;;3.28;;
5357;SDS011;2702;51.014;7.170;2023-02-28T04:29:33;3.30;;;2.90;;
5357;SDS011;2702;51.014;7.170;2023-02-28T04:32:00;3.57;;;3.27;;
5357;SDS011;2702;51.014;7.170;2023-02-28T04:34:27;3.13;;;2.70;;
5357;SDS011;2702;51.014;7.170;2023-02-28T04:36:54;4.07;;;3.30;;
5357;SDS011;2702;51.014;7.170;2023-02-28T04:39:21;3.90;;;3.58;;
5357;SDS011;2702;51.014;7.170;2023-02-28T04:41:48;5.35;;;2.65;;
5357;SDS011;2702;51.014;7.170;2023-02-28T04:44:14;2.90;;;2.60;;
5357;SDS011;2702;51.014;7.170;2023-02-28T04:46:41;3.38;;;2.83;;
5357;SDS011;2702;51.014;7.170;2023-02-28T04:49:11;3.13;;;2.80;;
5357;SDS011;2702;51.014;7.170;2023-02-28T04:51:38;2.95;;;2.75;;
5357;SDS011;2702;51.014;7.170;2023-02-28T04:54:04;2.83;;;2.63;;
5357;SDS011;2702;51.014;7.170;2023-02-28T04:56:30;2.57;;;2.37;;
5357;SDS011;2702;51.014;7.170;2023-02-28T04:58:56;3.60;;;3.30;;
5357;SDS011;2702;51.014;7.170;2023-02-28T05:01:23;2.83;;;2.60;;
5357;SDS011;2702;51.014;7.170;2023-02-28T05:03:52;3.05;;;2.85;;
5357;SDS011;2702;51.014;7.170;2023-02-28T05:06:20;3.65;;;2.75;;
5357;SDS011;2702;51.014;7.170;2023-02-28T05:08:49;2.65;;;2.45;;
5357;SDS011;2702;51.014;7.170;2023-02-28T05:13:49;3.00;;;2.80;;
5357;SDS011;2702;51.014;7.170;2023-02-28T05:16:16;2.42;;;2.30;;
5357;SDS011;2702;51.014;7.170;2023-02-28T05:18:42;2.70;;;2.50;;
5357;SDS011;2702;51.014;7.170;2023-02-28T05:23:58;2.50;;;2.30;;
5357;SDS011;2702;51.014;7.170;2023-02-28T05:26:29;2.78;;;2.45;;
5357;SDS011;2702;51.014;7.170;2023-02-28T05:28:55;2.65;;;2.40;;
5357;SDS011;2702;51.014;7.170;2023-02-28T05:31:22;5.28;;;3.33;;
5357;SDS011;2702;51.014;7.170;2023-02-28T05:33:48;2.80;;;2.60;;
5357;SDS011;2702;51.014;7.170;2023-02-28T05:36:14;2.63;;;2.40;;
5357;SDS011;2702;51.014;7.170;2023-02-28T05:38:40;3.00;;;2.80;;
5357;SDS011;2702;51.014;7.170;2023-02-28T05:41:07;3.10;;;2.77;;
5357;SDS011;2702;51.014;7.170;2023-02-28T05:43:34;4.53;;;3.20;;
5357;SDS011;2702;51.014;7.170;2023-02-28T05:46:02;2.63;;;2.42;;
5357;SDS011;2702;51.014;7.170;2023-02-28T05:48:30;3.60;;;2.78;;
5357;SDS011;2702;51.014;7.170;2023-02-28T05:50:57;3.17;;;2.92;;
5357;SDS011;2702;51.014;7.170;2023-02-28T05:53:23;2.42;;;2.22;;
5357;SDS011;2702;51.014;7.170;2023-02-28T05:55:49;3.13;;;2.88;;
5357;SDS011;2702;51.014;7.170;2023-02-28T05:58:15;3.03;;;2.73;;
5357;SDS011;2702;51.014;7.170;2023-02-28T06:00:41;2.87;;;2.47;;
5357;SDS011;2702;51.014;7.170;2023-02-28T06:03:06;3.40;;;3.10;;
5357;SDS011;2702;51.014;7.170;2023-02-28T06:05:32;3.00;;;2.80;;
5357;SDS011;2702;51.014;7.170;2023-02-28T06:07:58;3.53;;;3.23;;
5357;SDS011;2702;51.014;7.170;2023-02-28T06:10:24;2.50;;;2.30;;
5357;SDS011;2702;51.014;7.170;2023-02-28T06:12:50;3.20;;;3.00;;
5357;SDS011;2702;51.014;7.170;2023-02-28T06:15:16;3.23;;;2.93;;
5357;SDS011;2702;51.014;7.170;2023-02-28T06:17:42;3.97;;;3.67;;
5357;SDS011;2702;51.014;7.170;2023-02-28T06:20:10;3.13;;;2.85;;
5357;SDS011;2702;51.014;7.170;2023-02-28T06:22:38;3.30;;;3.00;;
5357;SDS011;2702;51.014;7.170;2023-02-28T06:25:05;4.45;;;4.05;;
5357;SDS011;2702;51.014;7.170;2023-02-28T06:27:32;3.80;;;3.40;;
5357;SDS011;2702;51.014;7.170;2023-02-28T06:29:59;4.30;;;3.95;;
5357;SDS011;2702;51.014;7.170;2023-02-28T06:32:25;3.03;;;2.67;;
5357;SDS011;2702;51.014;7.170;2023-02-28T06:34:51;5.00;;;3.47;;
5357;SDS011;2702;51.014;7.170;2023-02-28T06:37:18;3.05;;;2.60;;
5357;SDS011;2702;51.014;7.170;2023-02-28T06:39:44;2.92;;;2.72;;
5357;SDS011;2702;51.014;7.170;2023-02-28T06:42:10;3.20;;;2.90;;
5357;SDS011;2702;51.014;7.170;2023-02-28T06:44:36;3.37;;;3.07;;
5357;SDS011;2702;51.014;7.170;2023-02-28T06:47:03;3.57;;;2.93;;
5357;SDS011;2702;51.014;7.170;2023-02-28T06:49:31;6.15;;;2.90;;
5357;SDS011;2702;51.014;7.170;2023-02-28T06:51:58;3.45;;;2.70;;
5357;SDS011;2702;51.014;7.170;2023-02-28T06:54:24;3.40;;;3.20;;
5357;SDS011;2702;51.014;7.170;2023-02-28T06:56:49;3.60;;;2.53;;
5357;SDS011;2702;51.014;7.170;2023-02-28T06:59:16;2.50;;;2.30;;
5357;SDS011;2702;51.014;7.170;2023-02-28T07:01:42;5.25;;;3.10;;
5357;SDS011;2702;51.014;7.170;2023-02-28T07:04:08;3.10;;;2.90;;
5357;SDS011;2702;51.014;7.170;2023-02-28T07:06:33;4.00;;;2.83;;
5357;SDS011;2702;51.014;7.170;2023-02-28T07:08:59;2.83;;;2.50;;
5357;SDS011;2702;51.014;7.170;2023-02-28T07:11:26;2.87;;;2.67;;
5357;SDS011;2702;51.014;7.170;2023-02-28T07:13:53;2.67;;;2.47;;
5357;SDS011;2702;51.014;7.170;2023-02-28T07:16:20;3.35;;;2.70;;
5357;SDS011;2702;51.014;7.170;2023-02-28T07:18:47;3.97;;;3.05;;
5357;SDS011;2702;51.014;7.170;2023-02-28T07:21:13;2.90;;;2.70;;
5357;SDS011;2702;51.014;7.170;2023-02-28T07:23:39;6.45;;;3.00;;
5357;SDS011;2702;51.014;7.170;2023-02-28T07:26:07;2.63;;;2.42;;
5357;SDS011;2702;51.014;7.170;2023-02-28T07:28:40;2.40;;;2.20;;
5357;SDS011;2702;51.014;7.170;2023-02-28T07:31:10;3.85;;;2.97;;
5357;SDS011;2702;51.014;7.170;2023-02-28T07:33:39;2.78;;;2.50;;
5357;SDS011;2702;51.014;7.170;2023-02-28T07:36:06;2.93;;;2.73;;
5357;SDS011;2702;51.014;7.170;2023-02-28T07:38:34;3.05;;;2.75;;
5357;SDS011;2702;51.014;7.170;2023-02-28T07:41:01;3.05;;;2.85;;
5357;SDS011;2702;51.014;7.170;2023-02-28T07:43:29;3.00;;;2.80;;
5357;SDS011;2702;51.014;7.170;2023-02-28T07:46:00;7.72;;;3.20;;
5357;SDS011;2702;51.014;7.170;2023-02-28T07:48:28;6.45;;;3.03;;
5357;SDS011;2702;51.014;7.170;2023-02-28T07:50:55;4.43;;;3.50;;
5357;SDS011;2702;51.014;7.170;2023-02-28T07:53:21;3.15;;;2.88;;
5357;SDS011;2702;51.014;7.170;2023-02-28T07:55:47;2.63;;;2.43;;
5357;SDS011;2702;51.014;7.170;2023-02-28T07:58:13;3.67;;;2.70;;
5357;SDS011;2702;51.014;7.170;2023-02-28T08:00:39;3.23;;;2.90;;
5357;SDS011;2702;51.014;7.170;2023-02-28T08:03:05;7.93;;;2.73;;
5357;SDS011;2702;51.014;7.170;2023-02-28T08:05:30;2.30;;;2.10;;
5357;SDS011;2702;51.014;7.170;2023-02-28T08:07:56;2.42;;;2.22;;
5357;SDS011;2702;51.014;7.170;2023-02-28T08:10:22;3.63;;;2.70;;
5357;SDS011;2702;51.014;7.170;2023-02-28T08:12:49;3.15;;;2.70;;
5357;SDS011;2702;51.014;7.170;2023-02-28T08:15:15;2.28;;;2.08;;
5357;SDS011;2702;51.014;7.170;2023-02-28T08:17:41;2.50;;;2.30;;
5357;SDS011;2702;51.014;7.170;2023-02-28T08:20:07;2.63;;;2.43;;
5357;SDS011;2702;51.014;7.170;2023-02-28T08:22:34;2.33;;;2.13;;
5357;SDS011;2702;51.014;7.170;2023-02-28T08:25:00;2.57;;;2.37;;
5357;SDS011;2702;51.014;7.170;2023-02-28T08:27:25;2.40;;;2.20;;
5357;SDS011;2702;51.014;7.170;2023-02-28T08:29:51;3.40;;;2.20;;
5357;SDS011;2702;51.014;7.170;2023-02-28T08:32:17;2.33;;;1.97;;
5357;SDS011;2702;51.014;7.170;2023-02-28T08:34:43;1.83;;;1.73;;
5357;SDS011;2702;51.014;7.170;2023-02-28T08:37:08;2.30;;;1.90;;
5357;SDS011;2702;51.014;7.170;2023-02-28T08:39:35;2.10;;;2.00;;
5357;SDS011;2702;51.014;7.170;2023-02-28T08:42:02;3.55;;;2.30;;
5357;SDS011;2702;51.014;7.170;2023-02-28T08:44:28;1.70;;;1.60;;
5357;SDS011;2702;51.014;7.170;2023-02-28T08:46:54;2.17;;;1.97;;
5357;SDS011;2702;51.014;7.170;2023-02-28T08:49:20;2.50;;;1.83;;
5357;SDS011;2702;51.014;7.170;2023-02-28T08:51:46;2.30;;;2.10;;
5357;SDS011;2702;51.014;7.170;2023-02-28T08:54:12;1.60;;;1.50;;
5357;SDS011;2702;51.014;7.170;2023-02-28T08:56:38;2.37;;;1.87;;
5357;SDS011;2702;51.014;7.170;2023-02-28T08:59:04;2.22;;;1.80;;
5357;SDS011;2702;51.014;7.170;2023-02-28T09:01:30;2.10;;;2.00;;
5357;SDS011;2702;51.014;7.170;2023-02-28T09:03:57;2.05;;;1.85;;
5357;SDS011;2702;51.014;7.170;2023-02-28T09:06:24;3.42;;;2.85;;
5357;SDS011;2702;51.014;7.170;2023-02-28T09:08:52;2.35;;;2.15;;
5357;SDS011;2702;51.014;7.170;2023-02-28T09:11:19;2.63;;;2.33;;
5357;SDS011;2702;51.014;7.170;2023-02-28T09:13:45;1.70;;;1.60;;
5357;SDS011;2702;51.014;7.170;2023-02-28T09:16:12;2.35;;;1.70;;
5357;SDS011;2702;51.014;7.170;2023-02-28T09:18:39;2.13;;;1.65;;
5357;SDS011;2702;51.014;7.170;2023-02-28T09:21:07;1.67;;;1.58;;
5357;SDS011;2702;51.014;7.170;2023-02-28T09:23:34;1.60;;;1.50;;
5357;SDS011;2702;51.014;7.170;2023-02-28T09:26:00;3.25;;;2.28;;
5357;SDS011;2702;51.014;7.170;2023-02-28T09:28:26;2.00;;;1.90;;
5357;SDS011;2702;51.014;7.170;2023-02-28T09:30:53;2.00;;;1.90;;
5357;SDS011;2702;51.014;7.170;2023-02-28T09:33:20;1.90;;;1.80;;
5357;SDS011;2702;51.014;7.170;2023-02-28T09:35:50;1.60;;;1.50;;
5357;SDS011;2702;51.014;7.170;2023-02-28T09:38:22;1.70;;;1.50;;
5357;SDS011;2702;51.014;7.170;2023-02-28T09:40:51;1.70;;;1.60;;
5357;SDS011;2702;51.014;7.170;2023-02-28T09:43:26;1.73;;;1.63;;
5357;SDS011;2702;51.014;7.170;2023-02-28T09:46:10;1.40;;;1.30;;
5357;SDS011;2702;51.014;7.170;2023-02-28T09:48:57;1.60;;;1.50;;
5357;SDS011;2702;51.014;7.170;2023-02-28T09:51:30;1.58;;;1.48;;
5357;SDS011;2702;51.014;7.170;2023-02-28T09:54:17;5.60;;;1.87;;
5357;SDS011;2702;51.014;7.170;2023-02-28T09:56:50;1.67;;;1.45;;
5357;SDS011;2702;51.014;7.170;2023-02-28T10:02:29;2.10;;;1.53;;
5357;SDS011;2702;51.014;7.170;2023-02-28T10:05:14;2.30;;;1.70;;
5357;SDS011;2702;51.014;7.170;2023-02-28T10:10:27;1.80;;;1.70;;
5357;SDS011;2702;51.014;7.170;2023-02-28T10:16:16;1.80;;;1.70;;
5357;SDS011;2702;51.014;7.170;2023-02-28T10:18:52;1.87;;;1.77;;
5357;SDS011;2702;51.014;7.170;2023-02-28T10:21:42;2.10;;;1.90;;
5357;SDS011;2702;51.014;7.170;2023-02-28T10:26:51;2.20;;;2.00;;
5357;SDS011;2702;51.014;7.170;2023-02-28T10:29:22;1.70;;;1.60;;
5357;SDS011;2702;51.014;7.170;2023-02-28T10:31:48;3.13;;;2.13;;
5357;SDS011;2702;51.014;7.170;2023-02-28T10:34:14;3.17;;;2.20;;
5357;SDS011;2702;51.014;7.170;2023-02-28T10:36:39;2.03;;;1.70;;
5357;SDS011;2702;51.014;7.170;2023-02-28T10:42:00;2.10;;;2.00;;
5357;SDS011;2702;51.014;7.170;2023-02-28T10:44:26;2.90;;;2.03;;
5357;SDS011;2702;51.014;7.170;2023-02-28T10:46:52;2.50;;;2.00;;
5357;SDS011;2702;51.014;7.170;2023-02-28T10:49:36;2.33;;;2.13;;
5357;SDS011;2702;51.014;7.170;2023-02-28T10:52:04;2.37;;;2.20;;
5357;SDS011;2702;51.014;7.170;2023-02-28T10:54:35;2.47;;;2.27;;
5357;SDS011;2702;51.014;7.170;2023-02-28T10:57:15;2.37;;;2.17;;
5357;SDS011;2702;51.014;7.170;2023-02-28T10:59:50;2.30;;;2.00;;
5357;SDS011;2702;51.014;7.170;2023-02-28T11:05:00;2.40;;;2.30;;
5357;SDS011;2702;51.014;7.170;2023-02-28T11:07:26;3.73;;;2.97;;
5357;SDS011;2702;51.014;7.170;2023-02-28T11:09:56;2.30;;;2.10;;
5357;SDS011;2702;51.014;7.170;2023-02-28T11:12:25;2.80;;;2.60;;
5357;SDS011;2702;51.014;7.170;2023-02-28T11:14:55;2.47;;;2.23;;
5357;SDS011;2702;51.014;7.170;2023-02-28T11:17:28;2.60;;;2.40;;
5357;SDS011;2702;51.014;7.170;2023-02-28T11:20:00;3.03;;;2.83;;
5357;SDS011;2702;51.014;7.170;2023-02-28T11:22:29;2.70;;;2.50;;
5357;SDS011;2702;51.014;7.170;2023-02-28T11:25:01;2.50;;;2.30;;
5357;SDS011;2702;51.014;7.170;2023-02-28T11:29:59;2.63;;;2.40;;
5357;SDS011;2702;51.014;7.170;2023-02-28T11:32:27;2.60;;;2.40;;
5357;SDS011;2702;51.014;7.170;2023-02-28T11:37:36;2.30;;;2.20;;
5357;SDS011;2702;51.014;7.170;2023-02-28T11:40:13;2.43;;;2.23;;
5357;SDS011;2702;51.014;7.170;2023-02-28T11:48:43;2.57;;;2.37;;
5357;SDS011;2702;51.014;7.170;2023-02-28T11:56:44;3.10;;;2.90;;
5357;SDS011;2702;51.014;7.170;2023-02-28T11:59:29;2.87;;;2.67;;
5357;SDS011;2702;51.014;7.170;2023-02-28T12:10:22;3.50;;;2.47;;
5357;SDS011;2702;51.014;7.170;2023-02-28T12:18:32;3.63;;;3.33;;
5357;SDS011;2702;51.014;7.170;2023-02-28T12:28:54;3.33;;;2.90;;
5357;SDS011;2702;51.014;7.170;2023-02-28T12:31:28;4.40;;;4.00;;
5357;SDS011;2702;51.014;7.170;2023-02-28T12:33:59;3.03;;;2.83;;
5357;SDS011;2702;51.014;7.170;2023-02-28T12:36:29;3.33;;;3.07;;
5357;SDS011;2702;51.014;7.170;2023-02-28T12:38:56;3.97;;;3.27;;
5357;SDS011;2702;51.014;7.170;2023-02-28T12:41:40;4.77;;;3.53;;
5357;SDS011;2702;51.014;7.170;2023-02-28T12:44:30;2.97;;;2.77;;
5357;SDS011;2702;51.014;7.170;2023-02-28T12:47:02;3.23;;;2.87;;
5357;SDS011;2702;51.014;7.170;2023-02-28T12:52:03;3.00;;;2.70;;
5357;SDS011;2702;51.014;7.170;2023-02-28T12:54:39;3.70;;;3.50;;
5357;SDS011;2702;51.014;7.170;2023-02-28T12:57:28;3.90;;;3.60;;
5357;SDS011;2702;51.014;7.170;2023-02-28T13:00:11;3.40;;;3.10;;
5357;SDS011;2702;51.014;7.170;2023-02-28T13:05:58;5.13;;;2.90;;
5357;SDS011;2702;51.014;7.170;2023-02-28T13:11:38;4.27;;;3.07;;
5357;SDS011;2702;51.014;7.170;2023-02-28T13:14:27;3.00;;;2.80;;
5357;SDS011;2702;51.014;7.170;2023-02-28T13:19:33;2.70;;;2.50;;
5357;SDS011;2702;51.014;7.170;2023-02-28T13:22:05;3.43;;;3.13;;
5357;SDS011;2702;51.014;7.170;2023-02-28T13:25:49;3.00;;;2.80;;
5357;SDS011;2702;51.014;7.170;2023-02-28T13:27:57;4.30;;;3.10;;
5357;SDS011;2702;51.014;7.170;2023-02-28T13:38:42;3.40;;;3.10;;
5357;SDS011;2702;51.014;7.170;2023-02-28T13:44:09;3.57;;;3.10;;
5357;SDS011;2702;51.014;7.170;2023-02-28T13:54:17;3.80;;;3.60;;
5357;SDS011;2702;51.014;7.170;2023-02-28T13:56:48;3.40;;;3.20;;
5357;SDS011;2702;51.014;7.170;2023-02-28T14:05:01;3.30;;;3.00;;
5357;SDS011;2702;51.014;7.170;2023-02-28T14:07:52;3.47;;;3.17;;
5357;SDS011;2702;51.014;7.170;2023-02-28T14:10:31;3.40;;;3.10;;
5357;SDS011;2702;51.014;7.170;2023-02-28T14:13:04;3.27;;;2.97;;
5357;SDS011;2702;51.014;7.170;2023-02-28T14:15:49;3.83;;;3.47;;
5357;SDS011;2702;51.014;7.170;2023-02-28T14:18:31;3.40;;;3.10;;
5357;SDS011;2702;51.014;7.170;2023-02-28T14:26:55;3.23;;;2.93;;
5357;SDS011;2702;51.014;7.170;2023-02-28T14:38:13;3.30;;;3.10;;
5357;SDS011;2702;51.014;7.170;2023-02-28T14:40:55;4.40;;;3.60;;
5357;SDS011;2702;51.014;7.170;2023-02-28T14:43:27;4.13;;;3.73;;
5357;SDS011;2702;51.014;7.170;2023-02-28T14:45:56;3.83;;;3.40;;
5357;SDS011;2702;51.014;7.170;2023-02-28T14:48:24;3.10;;;2.90;;
5357;SDS011;2702;51.014;7.170;2023-02-28T14:50:53;4.63;;;4.23;;
5357;SDS011;2702;51.014;7.170;2023-02-28T14:53:22;3.77;;;3.47;;
5357;SDS011;2702;51.014;7.170;2023-02-28T14:55:50;3.50;;;3.20;;
5357;SDS011;2702;51.014;7.170;2023-02-28T15:00:54;5.63;;;4.60;;
5357;SDS011;2702;51.014;7.170;2023-02-28T15:03:23;5.90;;;5.30;;
5357;SDS011;2702;51.014;7.170;2023-02-28T15:05:58;4.60;;;4.20;;
5357;SDS011;2702;51.014;7.170;2023-02-28T15:08:29;5.30;;;4.70;;
5357;SDS011;2702;51.014;7.170;2023-02-28T15:13:55;4.30;;;3.60;;
5357;SDS011;2702;51.014;7.170;2023-02-28T15:19:14;4.80;;;4.30;;
5357;SDS011;2702;51.014;7.170;2023-02-28T15:21:49;4.43;;;4.00;;
5357;SDS011;2702;51.014;7.170;2023-02-28T15:27:07;3.63;;;3.20;;
5357;SDS011;2702;51.014;7.170;2023-02-28T15:29:46;4.43;;;3.50;;
5357;SDS011;2702;51.014;7.170;2023-02-28T15:32:31;3.57;;;3.27;;
5357;SDS011;2702;51.014;7.170;2023-02-28T15:35:17;3.70;;;3.40;;
5357;SDS011;2702;51.014;7.170;2023-02-28T15:43:24;5.27;;;3.60;;
5357;SDS011;2702;51.014;7.170;2023-02-28T15:48:24;3.47;;;3.17;;
5357;SDS011;2702;51.014;7.170;2023-02-28T15:54:02;3.53;;;3.23;;
5357;SDS011;2702;51.014;7.170;2023-02-28T15:56:39;4.27;;;3.77;;
5357;SDS011;2702;51.014;7.170;2023-02-28T15:59:13;3.80;;;3.50;;
5357;SDS011;2702;51.014;7.170;2023-02-28T16:01:43;4.00;;;3.60;;
5357;SDS011;2702;51.014;7.170;2023-02-28T16:04:17;4.17;;;3.77;;
5357;SDS011;2702;51.014;7.170;2023-02-28T16:06:45;3.47;;;3.17;;
5357;SDS011;2702;51.014;7.170;2023-02-28T16:09:14;3.07;;;2.87;;
5357;SDS011;2702;51.014;7.170;2023-02-28T16:11:51;6.13;;;3.80;;
5357;SDS011;2702;51.014;7.170;2023-02-28T16:14:21;6.33;;;4.97;;
5357;SDS011;2702;51.014;7.170;2023-02-28T16:16:50;4.33;;;3.93;;
5357;SDS011;2702;51.014;7.170;2023-02-28T16:19:17;3.37;;;3.07;;
5357;SDS011;2702;51.014;7.170;2023-02-28T16:21:44;4.40;;;3.07;;
5357;SDS011;2702;51.014;7.170;2023-02-28T16:24:10;3.90;;;3.47;;
5357;SDS011;2702;51.014;7.170;2023-02-28T16:26:36;3.40;;;2.80;;
5357;SDS011;2702;51.014;7.170;2023-02-28T16:29:04;2.97;;;2.77;;
5357;SDS011;2702;51.014;7.170;2023-02-28T16:31:35;3.03;;;2.77;;
5357;SDS011;2702;51.014;7.170;2023-02-28T16:34:02;3.50;;;3.20;;
5357;SDS011;2702;51.014;7.170;2023-02-28T16:36:29;3.00;;;2.80;;
5357;SDS011;2702;51.014;7.170;2023-02-28T16:38:55;3.80;;;3.27;;
5357;SDS011;2702;51.014;7.170;2023-02-28T16:41:23;3.40;;;3.10;;
5357;SDS011;2702;51.014;7.170;2023-02-28T16:43:52;6.30;;;5.70;;
5357;SDS011;2702;51.014;7.170;2023-02-28T16:46:24;10.27;;;5.70;;
5357;SDS011;2702;51.014;7.170;2023-02-28T16:48:56;12.47;;;11.20;;
5357;SDS011;2702;51.014;7.170;2023-02-28T16:51:23;4.70;;;3.47;;
5357;SDS011;2702;51.014;7.170;2023-02-28T16:53:48;4.10;;;3.70;;
5357;SDS011;2702;51.014;7.170;2023-02-28T16:56:18;4.33;;;3.93;;
5357;SDS011;2702;51.014;7.170;2023-02-28T16:58:49;3.80;;;3.40;;
5357;SDS011;2702;51.014;7.170;2023-02-28T17:01:17;4.50;;;4.10;;
5357;SDS011;2702;51.014;7.170;2023-02-28T17:03:47;4.80;;;3.00;;
5357;SDS011;2702;51.014;7.170;2023-02-28T17:06:20;3.87;;;3.57;;
5357;SDS011;2702;51.014;7.170;2023-02-28T17:08:53;3.83;;;3.53;;
5357;SDS011;2702;51.014;7.170;2023-02-28T17:11:19;3.60;;;2.90;;
5357;SDS011;2702;51.014;7.170;2023-02-28T17:13:46;3.77;;;3.47;;
5357;SDS011;2702;51.014;7.170;2023-02-28T17:16:28;4.27;;;3.90;;
5357;SDS011;2702;51.014;7.170;2023-02-28T17:18:57;5.67;;;5.00;;
5357;SDS011;2702;51.014;7.170;2023-02-28T17:21:26;4.70;;;4.13;;
5357;SDS011;2702;51.014;7.170;2023-02-28T17:23:52;4.47;;;3.77;;
5357;SDS011;2702;51.014;7.170;2023-02-28T17:26:18;6.77;;;6.17;;
5357;SDS011;2702;51.014;7.170;2023-02-28T17:28:46;4.07;;;3.67;;
5357;SDS011;2702;51.014;7.170;2023-02-28T17:31:13;8.37;;;6.60;;
5357;SDS011;2702;51.014;7.170;2023-02-28T17:33:39;8.50;;;7.60;;
5357;SDS011;2702;51.014;7.170;2023-02-28T17:36:06;5.83;;;5.30;;
5357;SDS011;2702;51.014;7.170;2023-02-28T17:38:36;5.20;;;4.70;;
5357;SDS011;2702;51.014;7.170;2023-02-28T17:41:02;9.10;;;8.13;;
5357;SDS011;2702;51.014;7.170;2023-02-28T17:43:28;5.60;;;5.03;;
5357;SDS011;2702;51.014;7.170;2023-02-28T17:45:54;7.57;;;6.83;;
5357;SDS011;2702;51.014;7.170;2023-02-28T17:48:21;5.40;;;4.80;;
5357;SDS011;2702;51.014;7.170;2023-02-28T17:50:47;7.87;;;7.17;;
5357;SDS011;2702;51.014;7.170;2023-02-28T17:53:13;9.00;;;7.47;;
5357;SDS011;2702;51.014;7.170;2023-02-28T17:55:39;5.37;;;4.90;;
5357;SDS011;2702;51.014;7.170;2023-02-28T17:58:05;4.57;;;4.18;;
5357;SDS011;2702;51.014;7.170;2023-02-28T18:00:31;5.00;;;4.53;;
5357;SDS011;2702;51.014;7.170;2023-02-28T18:03:00;5.20;;;4.73;;
5357;SDS011;2702;51.014;7.170;2023-02-28T18:05:26;5.20;;;4.50;;
5357;SDS011;2702;51.014;7.170;2023-02-28T18:07:52;7.30;;;5.73;;
5357;SDS011;2702;51.014;7.170;2023-02-28T18:10:19;8.05;;;6.90;;
5357;SDS011;2702;51.014;7.170;2023-02-28T18:12:46;16.70;;;9.93;;
5357;SDS011;2702;51.014;7.170;2023-02-28T18:15:14;5.13;;;4.73;;